createdAt,value
2022-08-30T00:01:28.739Z,18.40
2022-08-30T00:04:01.228Z,17.50
2022-08-30T00:06:33.241Z,14.80
2022-08-30T00:09:04.752Z,17.90
2022-08-30T00:11:35.385Z,16.10
2022-08-30T00:14:05.166Z,17.70
2022-08-30T00:16:36.759Z,18.20
2022-08-30T00:19:07.903Z,21.10
2022-08-30T00:21:36.205Z,24.60
2022-08-30T00:24:05.274Z,18.50
2022-08-30T00:26:38.844Z,21.70
2022-08-30T00:29:06.865Z,14.30
2022-08-30T00:31:34.884Z,17.20
2022-08-30T00:34:06.339Z,17.60
2022-08-30T00:36:41.223Z,20.50
2022-08-30T00:39:09.124Z,15.00
2022-08-30T00:41:42.454Z,16.40
2022-08-30T00:44:13.985Z,17.50
2022-08-30T00:46:42.562Z,16.50
2022-08-30T00:49:16.294Z,16.60
2022-08-30T00:51:48.225Z,17.10
2022-08-30T00:54:20.166Z,14.50
2022-08-30T00:56:52.955Z,14.70
2022-08-30T00:59:25.935Z,17.80
2022-08-30T01:01:57.830Z,17.10
2022-08-30T01:04:31.523Z,15.30
2022-08-30T01:07:03.632Z,14.90
2022-08-30T01:09:35.371Z,16.10
2022-08-30T01:12:06.717Z,18.60
2022-08-30T01:14:38.439Z,14.40
2022-08-30T01:17:10.364Z,19.20
2022-08-30T01:19:51.615Z,18.60
2022-08-30T01:22:36.890Z,17.60
2022-08-30T01:25:09.276Z,19.10
2022-08-30T01:28:05.368Z,16.00
2022-08-30T01:30:39.262Z,20.60
2022-08-30T01:33:11.788Z,18.90
2022-08-30T01:35:49.752Z,19.00
2022-08-30T01:38:23.741Z,16.20
2022-08-30T01:41:00.564Z,19.10
2022-08-30T01:43:29.213Z,18.60
2022-08-30T01:45:57.685Z,19.30
2022-08-30T01:48:32.835Z,17.10
2022-08-30T01:51:09.959Z,19.60
2022-08-30T01:53:43.006Z,14.20
2022-08-30T01:56:15.708Z,21.30
2022-08-30T01:58:47.399Z,19.80
2022-08-30T02:01:22.439Z,22.80
2022-08-30T02:03:52.025Z,13.50
2022-08-30T02:06:25.082Z,25.40
2022-08-30T02:08:53.065Z,15.10
2022-08-30T02:11:24.028Z,14.00
2022-08-30T02:13:51.868Z,13.80
2022-08-30T02:16:25.808Z,14.50
2022-08-30T02:18:58.150Z,13.80
2022-08-30T02:21:29.807Z,13.60
2022-08-30T02:24:01.799Z,15.60
2022-08-30T02:26:29.543Z,15.50
2022-08-30T02:29:00.366Z,17.30
2022-08-30T02:31:29.302Z,16.10
2022-08-30T02:33:57.119Z,19.00
2022-08-30T02:36:25.852Z,16.80
2022-08-30T02:38:57.305Z,21.70
2022-08-30T02:41:25.412Z,19.20
2022-08-30T02:43:58.565Z,18.30
2022-08-30T02:46:33.435Z,20.00
2022-08-30T02:49:32.491Z,18.00
2022-08-30T02:52:06.900Z,20.10
2022-08-30T02:54:37.224Z,17.10
2022-08-30T02:57:20.315Z,18.30
2022-08-30T02:59:57.398Z,18.40
2022-08-30T03:02:30.409Z,17.10
2022-08-30T03:05:02.516Z,14.80
2022-08-30T03:07:35.361Z,16.00
2022-08-30T03:10:07.224Z,16.00
2022-08-30T03:12:34.995Z,17.40
2022-08-30T03:15:07.059Z,18.80
2022-08-30T03:17:37.549Z,17.30
2022-08-30T03:20:09.790Z,16.00
2022-08-30T03:22:41.748Z,16.60
2022-08-30T03:25:23.257Z,18.70
2022-08-30T03:27:55.110Z,19.30
2022-08-30T03:30:22.911Z,17.10
2022-08-30T03:32:54.748Z,19.20
2022-08-30T03:35:24.765Z,16.70
2022-08-30T03:37:56.254Z,16.40
2022-08-30T03:40:29.365Z,19.10
2022-08-30T03:42:59.827Z,16.70
2022-08-30T03:45:33.255Z,18.70
2022-08-30T03:48:05.808Z,17.40
2022-08-30T03:50:39.093Z,19.70
2022-08-30T03:53:06.988Z,19.20
2022-08-30T03:55:34.956Z,18.30
2022-08-30T03:58:02.841Z,18.50
2022-08-30T04:00:32.910Z,19.60
2022-08-30T04:03:00.875Z,18.90
2022-08-30T04:05:29.103Z,22.70
2022-08-30T04:07:59.697Z,16.70
2022-08-30T04:10:27.591Z,19.50
2022-08-30T04:13:02.183Z,20.50
2022-08-30T04:15:30.125Z,25.90
2022-08-30T04:17:58.818Z,19.80
2022-08-30T04:20:30.323Z,19.10
2022-08-30T04:23:03.044Z,19.20
2022-08-30T04:25:30.773Z,25.10
2022-08-30T04:27:58.532Z,17.00
2022-08-30T04:30:26.273Z,22.70
2022-08-30T04:32:58.883Z,18.00
2022-08-30T04:35:31.074Z,19.80
2022-08-30T04:38:02.951Z,18.60
2022-08-30T04:40:30.889Z,18.20
2022-08-30T04:43:06.591Z,20.70
2022-08-30T04:45:34.590Z,19.50
2022-08-30T04:48:02.839Z,21.80
2022-08-30T04:50:33.139Z,18.40
2022-08-30T04:53:00.917Z,21.30
2022-08-30T04:55:28.693Z,20.20
2022-08-30T04:57:57.176Z,16.80
2022-08-30T05:00:25.153Z,23.50
2022-08-30T05:02:52.879Z,15.60
2022-08-30T05:05:39.686Z,18.40
2022-08-30T05:08:13.620Z,15.70
2022-08-30T05:10:47.819Z,17.70
2022-08-30T05:13:21.034Z,19.00
2022-08-30T05:15:57.986Z,18.90
2022-08-30T05:18:28.623Z,20.70
2022-08-30T05:21:16.469Z,22.30
2022-08-30T05:23:46.539Z,20.70
2022-08-30T05:26:25.247Z,17.40
2022-08-30T05:28:56.338Z,19.90
2022-08-30T05:31:30.568Z,22.70
2022-08-30T05:34:02.648Z,16.00
2022-08-30T05:36:35.205Z,21.60
2022-08-30T05:39:07.784Z,20.40
2022-08-30T05:41:39.551Z,16.60
2022-08-30T05:44:12.059Z,16.70
2022-08-30T05:46:46.883Z,21.20
2022-08-30T05:49:17.853Z,17.50
2022-08-30T05:51:45.670Z,19.90
2022-08-30T05:54:16.368Z,17.90
2022-08-30T05:56:48.796Z,18.60
2022-08-30T05:59:20.582Z,21.90
2022-08-30T06:01:48.536Z,16.10
2022-08-30T06:04:18.988Z,19.80
2022-08-30T06:06:46.749Z,20.40
2022-08-30T06:09:16.217Z,21.50
2022-08-30T06:11:49.527Z,17.90
2022-08-30T06:14:17.454Z,21.30
2022-08-30T06:16:47.027Z,19.00
2022-08-30T06:19:15.452Z,19.80
2022-08-30T06:21:48.171Z,21.40
2022-08-30T06:24:20.754Z,16.10
2022-08-30T06:26:52.631Z,19.00
2022-08-30T06:29:22.795Z,19.20
2022-08-30T06:31:50.858Z,19.30
2022-08-30T06:34:22.791Z,18.70
2022-08-30T06:36:50.668Z,19.70
2022-08-30T06:39:18.422Z,20.80
2022-08-30T06:41:46.284Z,16.90
2022-08-30T06:44:14.004Z,19.10
2022-08-30T06:46:41.809Z,16.10
2022-08-30T06:49:12.733Z,18.80
2022-08-30T06:51:40.642Z,22.80
2022-08-30T06:54:13.258Z,16.60
2022-08-30T06:56:48.682Z,15.20
2022-08-30T06:59:28.527Z,16.20
2022-08-30T07:01:58.708Z,14.90
2022-08-30T07:04:27.693Z,11.40
2022-08-30T07:06:55.430Z,15.20
2022-08-30T07:09:23.532Z,14.60
2022-08-30T07:11:55.074Z,16.60
2022-08-30T07:14:27.174Z,11.70
2022-08-30T07:16:55.144Z,17.10
2022-08-30T07:19:23.018Z,18.60
2022-08-30T07:21:50.846Z,15.70
2022-08-30T07:24:20.585Z,13.60
2022-08-30T07:26:53.751Z,17.20
2022-08-30T07:29:22.465Z,16.80
2022-08-30T07:31:53.824Z,16.70
2022-08-30T07:34:27.583Z,15.90
2022-08-30T07:36:55.454Z,14.30
2022-08-30T07:39:23.204Z,18.50
2022-08-30T07:41:51.030Z,15.90
2022-08-30T07:44:18.938Z,19.20
2022-08-30T07:46:47.534Z,14.50
2022-08-30T07:49:20.114Z,12.70
2022-08-30T07:51:48.058Z,12.00
2022-08-30T07:54:16.529Z,16.10
2022-08-30T07:56:44.275Z,14.50
2022-08-30T07:59:12.458Z,13.40
2022-08-30T08:01:40.946Z,18.20
2022-08-30T08:04:10.354Z,12.70
2022-08-30T08:06:45.328Z,11.70
2022-08-30T08:09:14.250Z,12.30
2022-08-30T08:11:42.152Z,10.30
2022-08-30T08:14:10.600Z,16.10
2022-08-30T08:16:42.448Z,13.50
2022-08-30T08:19:12.351Z,12.70
2022-08-30T08:21:40.698Z,11.20
2022-08-30T08:24:09.338Z,11.20
2022-08-30T08:26:45.407Z,14.00
2022-08-30T08:29:19.342Z,13.20
2022-08-30T08:31:47.210Z,8.20
2022-08-30T08:34:19.828Z,12.60
2022-08-30T08:36:49.292Z,13.90
2022-08-30T08:39:21.721Z,10.50
2022-08-30T08:42:07.675Z,10.30
2022-08-30T08:45:08.761Z,13.50
2022-08-30T08:48:04.208Z,11.20
2022-08-30T08:53:46.248Z,9.60
2022-08-30T08:56:19.413Z,12.40
2022-08-30T08:58:53.585Z,10.90
2022-08-30T09:01:29.239Z,13.20
2022-08-30T09:04:03.925Z,12.00
2022-08-30T09:06:45.095Z,10.90
2022-08-30T09:09:14.731Z,9.90
2022-08-30T09:11:44.498Z,11.20
2022-08-30T09:16:58.997Z,7.20
2022-08-30T09:19:51.918Z,7.60
2022-08-30T09:22:31.604Z,9.10
2022-08-30T09:25:35.918Z,6.20
2022-08-30T09:28:16.436Z,10.40
2022-08-30T09:31:21.161Z,7.50
2022-08-30T09:34:09.651Z,11.20
2022-08-30T09:36:45.185Z,10.50
2022-08-30T09:39:39.425Z,12.10
2022-08-30T09:42:26.184Z,11.50
2022-08-30T09:45:11.833Z,10.20
2022-08-30T09:47:43.890Z,13.00
2022-08-30T09:50:24.330Z,8.10
2022-08-30T09:53:01.439Z,10.70
2022-08-30T09:55:49.980Z,7.40
2022-08-30T09:58:56.025Z,12.80
2022-08-30T10:01:33.251Z,7.80
2022-08-30T10:04:05.271Z,12.00
2022-08-30T10:06:38.325Z,9.20
2022-08-30T10:09:30.250Z,9.70
2022-08-30T10:12:33.317Z,8.40
2022-08-30T10:15:27.264Z,11.60
2022-08-30T10:18:11.697Z,7.40
2022-08-30T10:21:19.097Z,5.80
2022-08-30T10:23:55.553Z,7.20
2022-08-30T10:26:23.337Z,4.50
2022-08-30T10:29:02.936Z,11.30
2022-08-30T10:31:50.135Z,10.70
2022-08-30T10:34:26.341Z,8.10
2022-08-30T10:37:05.277Z,9.70
2022-08-30T10:39:42.046Z,7.60
2022-08-30T10:42:26.539Z,5.40
2022-08-30T10:45:17.678Z,9.00
2022-08-30T10:47:56.017Z,8.30
2022-08-30T10:50:29.824Z,7.60
2022-08-30T10:53:12.440Z,10.20
2022-08-30T10:55:56.967Z,6.10
2022-08-30T10:58:25.450Z,7.30
2022-08-30T11:01:15.819Z,7.90
2022-08-30T11:03:49.649Z,7.60
2022-08-30T11:06:37.545Z,10.50
2022-08-30T11:09:28.157Z,10.10
2022-08-30T11:12:39.342Z,9.00
2022-08-30T11:15:18.072Z,4.50
2022-08-30T11:17:56.671Z,12.50
2022-08-30T11:20:34.575Z,7.00
2022-08-30T11:23:26.668Z,10.30
2022-08-30T11:29:03.478Z,10.20
2022-08-30T11:31:40.667Z,10.40
2022-08-30T11:34:10.830Z,8.20
2022-08-30T11:36:46.051Z,5.00
2022-08-30T11:39:42.522Z,5.30
2022-08-30T11:45:24.819Z,7.60
2022-08-30T11:47:59.520Z,9.30
2022-08-30T11:51:02.000Z,5.70
2022-08-30T11:54:14.683Z,9.70
2022-08-30T11:57:08.883Z,6.90
2022-08-30T11:59:44.356Z,12.00
2022-08-30T12:02:45.057Z,8.30
2022-08-30T12:05:41.039Z,7.40
2022-08-30T12:08:21.246Z,9.30
2022-08-30T12:10:58.790Z,11.70
2022-08-30T12:13:36.629Z,7.90
2022-08-30T12:16:36.175Z,7.90
2022-08-30T12:19:21.176Z,8.60
2022-08-30T12:22:02.416Z,8.60
2022-08-30T12:24:36.729Z,7.00
2022-08-30T12:27:32.640Z,6.70
2022-08-30T12:30:07.236Z,7.00
2022-08-30T12:32:50.698Z,8.60
2022-08-30T12:35:26.018Z,6.30
2022-08-30T12:38:14.539Z,6.90
2022-08-30T12:40:50.464Z,8.10
2022-08-30T12:43:49.282Z,9.50
2022-08-30T12:46:22.420Z,8.60
2022-08-30T12:48:52.573Z,7.00
2022-08-30T12:51:38.646Z,6.60
2022-08-30T12:54:23.802Z,6.80
2022-08-30T12:57:19.016Z,6.80
2022-08-30T12:59:59.646Z,8.40
2022-08-30T13:02:47.245Z,7.70
2022-08-30T13:05:34.920Z,5.50
2022-08-30T13:08:27.975Z,8.50
2022-08-30T13:11:09.164Z,8.90
2022-08-30T13:13:44.829Z,9.20
2022-08-30T13:16:18.530Z,6.40
2022-08-30T13:18:53.454Z,6.20
2022-08-30T13:21:30.031Z,6.40
2022-08-30T13:24:08.143Z,7.20
2022-08-30T13:26:41.168Z,9.30
2022-08-30T13:31:46.497Z,8.10
2022-08-30T13:34:24.089Z,8.30
2022-08-30T13:37:00.083Z,9.30
2022-08-30T13:39:28.234Z,7.70
2022-08-30T13:42:31.203Z,6.60
2022-08-30T13:44:44.317Z,9.90
2022-08-30T13:50:04.162Z,5.60
2022-08-30T13:52:34.703Z,5.20
2022-08-30T13:55:03.201Z,9.10
2022-08-30T14:00:25.197Z,6.50
2022-08-30T14:02:57.725Z,4.70
2022-08-30T14:05:50.460Z,8.50
2022-08-30T14:08:49.018Z,5.20
2022-08-30T14:11:22.870Z,11.60
2022-08-30T14:16:46.622Z,7.00
2022-08-30T14:19:16.539Z,5.00
2022-08-30T14:21:49.238Z,5.90
2022-08-30T14:24:21.570Z,8.30
2022-08-30T14:26:52.937Z,7.00
2022-08-30T14:29:31.323Z,7.20
2022-08-30T14:32:00.443Z,6.10
2022-08-30T14:34:29.571Z,10.40
2022-08-30T14:37:00.069Z,8.10
2022-08-30T14:39:28.382Z,6.90
2022-08-30T14:41:58.182Z,5.40
2022-08-30T14:44:54.719Z,6.80
2022-08-30T14:47:25.632Z,7.90
2022-08-30T14:50:02.807Z,6.30
2022-08-30T14:52:33.211Z,8.30
2022-08-30T14:55:09.157Z,8.50
2022-08-30T14:57:39.052Z,7.50
2022-08-30T15:00:12.033Z,5.50
2022-08-30T15:02:42.733Z,7.00
2022-08-30T15:05:12.137Z,7.90
2022-08-30T15:07:42.867Z,7.10
2022-08-30T15:10:16.672Z,5.00
2022-08-30T15:12:51.923Z,9.20
2022-08-30T15:15:25.643Z,6.00
2022-08-30T15:17:53.390Z,6.90
2022-08-30T15:20:23.088Z,5.90
2022-08-30T15:22:52.639Z,8.70
2022-08-30T15:25:21.377Z,6.70
2022-08-30T15:27:51.704Z,6.90
2022-08-30T15:30:21.412Z,7.40
2022-08-30T15:32:49.352Z,6.80
2022-08-30T15:35:17.209Z,8.00
2022-08-30T15:37:44.994Z,10.30
2022-08-30T15:40:14.930Z,12.00
2022-08-30T15:42:42.929Z,7.20
2022-08-30T15:45:12.177Z,5.90
2022-08-30T15:47:40.152Z,6.80
2022-08-30T15:50:10.078Z,6.40
2022-08-30T15:52:40.485Z,5.70
2022-08-30T15:55:10.409Z,8.50
2022-08-30T15:57:39.953Z,5.50
2022-08-30T16:00:11.244Z,6.90
2022-08-30T16:02:39.164Z,8.60
2022-08-30T16:05:10.288Z,6.00
2022-08-30T16:07:40.951Z,7.60
2022-08-30T16:10:11.575Z,7.60
2022-08-30T16:12:40.599Z,10.90
2022-08-30T16:15:10.931Z,13.80
2022-08-30T16:17:40.086Z,8.60
2022-08-30T16:20:09.864Z,14.00
2022-08-30T16:22:45.769Z,11.60
2022-08-30T16:25:16.144Z,8.10
2022-08-30T16:27:45.988Z,10.70
2022-08-30T16:30:16.121Z,7.20
2022-08-30T16:32:46.401Z,14.80
2022-08-30T16:35:14.468Z,17.40
2022-08-30T16:37:43.239Z,34.00
2022-08-30T16:40:13.313Z,12.00
2022-08-30T16:42:41.404Z,17.80
2022-08-30T16:45:11.888Z,11.90
2022-08-30T16:47:39.866Z,7.20
2022-08-30T16:50:11.971Z,8.20
2022-08-30T16:52:44.023Z,12.10
2022-08-30T16:57:43.599Z,10.10
2022-08-30T17:00:14.178Z,10.90
2022-08-30T17:02:45.260Z,10.60
2022-08-30T17:05:25.718Z,10.90
2022-08-30T17:07:53.694Z,10.50
2022-08-30T17:10:26.279Z,6.00
2022-08-30T17:13:01.813Z,8.40
2022-08-30T17:15:31.427Z,10.50
2022-08-30T17:17:59.661Z,11.20
2022-08-30T17:20:33.422Z,8.60
2022-08-30T17:23:02.088Z,10.00
2022-08-30T17:25:34.127Z,10.20
2022-08-30T17:28:03.915Z,9.90
2022-08-30T17:30:35.083Z,11.50
2022-08-30T17:33:05.022Z,9.60
2022-08-30T17:35:32.794Z,10.60
2022-08-30T17:38:00.782Z,9.40
2022-08-30T17:40:31.733Z,9.50
2022-08-30T17:43:02.969Z,8.30
2022-08-30T17:45:30.763Z,9.70
2022-08-30T17:48:07.079Z,11.50
2022-08-30T17:50:36.013Z,12.90
2022-08-30T17:53:04.997Z,14.30
2022-08-30T17:55:34.529Z,14.00
2022-08-30T17:58:03.916Z,11.80
2022-08-30T18:00:33.737Z,13.60
2022-08-30T18:03:04.863Z,15.10
2022-08-30T18:05:38.410Z,15.50
2022-08-30T18:08:10.909Z,12.40
2022-08-30T18:10:39.269Z,18.30
2022-08-30T18:13:10.309Z,14.60
2022-08-30T18:15:42.114Z,17.60
2022-08-30T18:18:12.991Z,17.60
2022-08-30T18:20:41.056Z,22.90
2022-08-30T18:23:10.679Z,21.00
2022-08-30T18:25:40.324Z,22.70
2022-08-30T18:28:12.503Z,21.20
2022-08-30T18:30:45.398Z,23.50
2022-08-30T18:33:14.780Z,23.30
2022-08-30T18:35:50.582Z,24.70
2022-08-30T18:38:23.043Z,19.10
2022-08-30T18:41:03.220Z,23.50
2022-08-30T18:43:31.273Z,18.80
2022-08-30T18:46:10.422Z,21.70
2022-08-30T18:48:41.272Z,18.40
2022-08-30T18:51:19.499Z,19.70
2022-08-30T18:53:50.290Z,18.10
2022-08-30T18:56:18.097Z,19.70
2022-08-30T18:58:48.299Z,19.50
2022-08-30T19:01:22.636Z,19.20
2022-08-30T19:03:50.803Z,19.30
2022-08-30T19:06:24.164Z,18.00
2022-08-30T19:08:51.932Z,19.20
2022-08-30T19:11:19.775Z,13.90
2022-08-30T19:13:49.858Z,16.30
2022-08-30T19:16:21.125Z,15.50
2022-08-30T19:18:50.756Z,29.00
2022-08-30T19:21:21.424Z,18.70
2022-08-30T19:23:54.960Z,16.50
2022-08-30T19:26:27.498Z,15.10
2022-08-30T19:28:56.333Z,17.10
2022-08-30T19:31:24.112Z,19.80
2022-08-30T19:33:53.744Z,18.00
2022-08-30T19:36:21.603Z,14.70
2022-08-30T19:38:49.519Z,16.20
2022-08-30T19:41:17.476Z,17.20
2022-08-30T19:43:49.203Z,18.80
2022-08-30T19:46:17.914Z,16.50
2022-08-30T19:48:46.195Z,19.10
2022-08-30T19:51:15.736Z,21.20
2022-08-30T19:53:45.612Z,18.90
2022-08-30T19:56:15.220Z,17.50
2022-08-30T19:58:44.902Z,18.90
2022-08-30T20:01:33.066Z,19.00
2022-08-30T20:04:04.084Z,20.70
2022-08-30T20:06:33.989Z,18.70
2022-08-30T20:09:10.570Z,19.00
2022-08-30T20:11:42.295Z,21.90
2022-08-30T20:14:13.514Z,20.40
2022-08-30T20:16:45.941Z,17.90
2022-08-30T20:19:18.443Z,18.50
2022-08-30T20:21:50.983Z,19.90
2022-08-30T20:24:25.488Z,18.70
2022-08-30T20:26:55.292Z,17.10
2022-08-30T20:29:25.379Z,17.30
2022-08-30T20:31:54.673Z,16.90
2022-08-30T20:34:27.675Z,15.70
2022-08-30T20:36:59.603Z,16.40
2022-08-30T20:39:27.761Z,17.00
2022-08-30T20:41:59.008Z,16.60
2022-08-30T20:44:27.076Z,15.00
2022-08-30T20:46:56.954Z,13.20
2022-08-30T20:49:25.038Z,14.80
2022-08-30T20:51:54.813Z,13.20
2022-08-30T20:54:23.464Z,14.50
2022-08-30T20:56:55.225Z,16.30
2022-08-30T20:59:23.028Z,16.40
2022-08-30T21:01:58.546Z,14.80
2022-08-30T21:04:31.753Z,15.60
2022-08-30T21:07:03.994Z,17.60
2022-08-30T21:09:31.786Z,14.60
2022-08-30T21:11:59.583Z,13.00
2022-08-30T21:14:27.554Z,18.00
2022-08-30T21:16:58.588Z,19.00
2022-08-30T21:19:33.149Z,16.80
2022-08-30T21:22:05.830Z,15.00
2022-08-30T21:24:35.029Z,17.80
2022-08-30T21:27:04.226Z,14.20
2022-08-30T21:29:34.498Z,18.10
2022-08-30T21:32:03.669Z,12.30
2022-08-30T21:34:57.289Z,17.70
2022-08-30T21:37:31.098Z,13.40
2022-08-30T21:40:11.302Z,15.20
2022-08-30T21:42:47.362Z,14.70
2022-08-30T21:45:17.492Z,13.50
2022-08-30T21:47:45.415Z,15.80
2022-08-30T21:50:13.519Z,13.10
2022-08-30T21:52:43.782Z,17.00
2022-08-30T21:55:14.343Z,14.10
2022-08-30T21:57:44.048Z,14.20
2022-08-30T22:00:20.454Z,12.20
2022-08-30T22:02:49.236Z,15.90
2022-08-30T22:05:21.316Z,13.30
2022-08-30T22:07:51.488Z,13.40
2022-08-30T22:10:21.577Z,12.70
2022-08-30T22:12:49.782Z,11.40
2022-08-30T22:15:18.978Z,13.30
2022-08-30T22:17:47.357Z,9.10
2022-08-30T22:20:18.490Z,13.70
2022-08-30T22:22:47.032Z,16.20
2022-08-30T22:25:15.872Z,14.20
2022-08-30T22:27:44.047Z,9.40
2022-08-30T22:30:13.300Z,11.30
2022-08-30T22:32:41.720Z,11.80
2022-08-30T22:35:11.050Z,11.70
2022-08-30T22:37:39.443Z,11.50
2022-08-30T22:40:08.368Z,8.40
2022-08-30T22:42:38.601Z,11.30
2022-08-30T22:45:08.038Z,11.80
2022-08-30T22:47:39.055Z,10.60
2022-08-30T22:50:08.573Z,10.60
2022-08-30T22:52:37.965Z,10.20
2022-08-30T22:55:07.262Z,11.90
2022-08-30T22:57:38.409Z,10.00
2022-08-30T23:00:12.931Z,10.60
2022-08-30T23:02:50.350Z,9.40
2022-08-30T23:05:21.511Z,12.10
2022-08-30T23:07:53.125Z,11.00
2022-08-30T23:10:28.644Z,11.90
2022-08-30T23:12:58.301Z,10.20
2022-08-30T23:15:29.891Z,15.50
2022-08-30T23:17:58.201Z,13.30
2022-08-30T23:20:26.706Z,10.60
2022-08-30T23:22:58.217Z,9.90
2022-08-30T23:25:51.852Z,12.00
2022-08-30T23:28:41.198Z,9.70
2022-08-30T23:31:37.027Z,10.90
2022-08-30T23:34:26.055Z,9.50
2022-08-30T23:37:12.776Z,8.60
2022-08-30T23:39:59.560Z,9.70
2022-08-30T23:42:47.316Z,11.40
2022-08-30T23:45:34.518Z,8.70
2022-08-30T23:48:25.135Z,9.40
2022-08-30T23:51:11.699Z,9.40
2022-08-30T23:54:12.054Z,7.90
2022-08-30T23:57:00.432Z,8.70
2022-08-30T23:59:48.570Z,10.10
